Terminal Aerodrome Forecast
Issued by NWS Charleston, SC

Home | Current Version | Previous Version | Text Only | Print | Product List | Glossary On
Versions: 1 2 3 4 5 6 7 8 9 10 11 12 13 14 15 16 17 18 19 20 21 22 23
000
FTUS42 KCHS 200300 AAB
TAFCHS
TAF AMD
KCHS 200316Z 2003/2024 06009KT P6SM VCSH SCT030 BKN080
     FM200600 06008KT P6SM SCT020 BKN050
      TEMPO 2009/2012 4SM -SHRA BR BKN030
     FM201200 04012G17KT P6SM SCT035 BKN070
     FM201900 05013G18KT 6SM -SHRA SCT030 BKN050=

USA.gov is the U.S. government's official web portal to all federal, state and local government web resources and services.